Terminal Aerodrome Forecast
Issued by NWS

Home | Current Version | Previous Version | Text Only | Print | Product List | Glossary On
Versions: 1 2 3 4 5 6 7 8 9 10 11 12 13
000
FTUS45 KRIW 231121
TAFJAC
TAF
KJAC 231121Z 2312/2412 01006KT P6SM SKC
     FM231400 VRB03KT P6SM SCT120
     FM231900 20007KT P6SM VCSH SCT100 BKN150
     FM232030 VRB10G15KT P6SM VCTS SCT060CB BKN120
     FM240200 VRB06KT P6SM VCSH SCT050 BKN100
     FM240400 01005KT P6SM SCT100 BKN150
      AMD LTD TO CLD VIS AND WIND=

USA.gov is the U.S. government's official web portal to all federal, state and local government web resources and services.